This is the latest recevied weather packets stored in our database for station/object I3RKE-10. If no packets are shown the sender has not sent any weather packets the latest 10 day(s).
| Time | Temp. | Humidity | Pressure | Rain* | Wind** | Luminosity | Snow |
|---|---|---|---|---|---|---|---|
| 1777560055 | 25° C | 19% | 1016.8 hPa | - | - | - | - |
| 1777559155 | 23.89° C | 21% | 1016.8 hPa | - | - | - | - |
| 1777558255 | 25° C | 20% | 1016.9 hPa | - | - | - | - |
| 1777557355 | 22.22° C | 24% | 1016.9 hPa | - | - | - | - |
| 1777556455 | 22.78° C | 24% | 1017 hPa | - | - | - | - |
| 1777555555 | 23.89° C | 24% | 1017.1 hPa | - | - | - | - |
| 1777554655 | 22.78° C | 26% | 1017.3 hPa | - | - | - | - |
| 1777553755 | 22.78° C | 26% | 1017.3 hPa | - | - | - | - |
| 1777552855 | 22.22° C | 27% | 1017.6 hPa | - | - | - | - |
| 1777551954 | 22.22° C | 28% | 1017.7 hPa | - | - | - | - |
| 1777551054 | 19.44° C | 31% | 1018 hPa | - | - | - | - |
| 1777550154 | 21.11° C | 29% | 1018.1 hPa | - | - | - | - |
| 1777549254 | 20.56° C | 31% | 1018.3 hPa | - | - | - | - |
| 1777548354 | 19.44° C | 32% | 1018.3 hPa | - | - | - | - |
| 1777547454 | 19.44° C | 32% | 1018.5 hPa | - | - | - | - |
| 1777546554 | 18.89° C | 33% | 1018.7 hPa | - | - | - | - |
| 1777545654 | 18.33° C | 33% | 1018.8 hPa | - | - | - | - |
| 1777544754 | 18.33° C | 33% | 1018.8 hPa | - | - | - | - |
| 1777543854 | 17.78° C | 34% | 1018.8 hPa | - | - | - | - |
| 1777542953 | 17.22° C | 34% | 1018.9 hPa | - | - | - | - |
| 1777542053 | 17.22° C | 34% | 1019.1 hPa | - | - | - | - |
| 1777541152 | 17.22° C | 34% | 1019.2 hPa | - | - | - | - |
| 1777540252 | 15.56° C | 35% | 1019.2 hPa | - | - | - | - |
| 1777539352 | 16.11° C | 34% | 1019.3 hPa | - | - | - | - |
| 1777538452 | 16.11° C | 34% | 1019.2 hPa | - | - | - | - |
* Rain since midnight (hover to see other rain measurements)
** Current wind speed in m/s (hover to see current wind gust speed)